Albanel, Canada
Current Conditions -  °F | °C
As of 10:00 PM on Wednesday 22 Oct 2014 (Local Time) from CYRJ Reporting Station
Clear Clear  
Wind Chill: 28°   Ceiling: Unl
Heat Index: 28°   Visibility: 25mi
Dew Point: 27°   Wind: 3mph
Humidity: 93%   Direction: 270°W
Pressure: 30.38"   Gusts: NA
Location:  48.87°N, 72.42°W
Report Text: CYRJ 230200Z 27003KT 25SM SKC M02/M03 A3038 RMK SLP299
Loading
Personal Weather Stations






























Interactive Weather Map
Tropical Storm Tracking
New forecast layout! Learn more

10-Day Weather Forecast

Advertisements
Track Severe Weather on mobile